sensor_id;sensor_type;location;lat;lon;timestamp;temperature;humidity
31661;DHT22;18267;52.234;7.444;2023-07-28T00:02:16;18.00;99.90
31661;DHT22;18267;52.234;7.444;2023-07-28T00:04:41;18.10;99.90
31661;DHT22;18267;52.234;7.444;2023-07-28T00:07:07;18.10;99.90
31661;DHT22;18267;52.234;7.444;2023-07-28T00:09:32;18.10;99.90
31661;DHT22;18267;52.234;7.444;2023-07-28T00:11:59;18.10;99.90
31661;DHT22;18267;52.234;7.444;2023-07-28T00:14:25;18.10;99.90
31661;DHT22;18267;52.234;7.444;2023-07-28T00:16:52;18.00;99.90
31661;DHT22;18267;52.234;7.444;2023-07-28T00:19:18;18.00;99.90
31661;DHT22;18267;52.234;7.444;2023-07-28T00:21:44;18.10;99.90
31661;DHT22;18267;52.234;7.444;2023-07-28T00:24:10;18.10;99.90
31661;DHT22;18267;52.234;7.444;2023-07-28T00:26:35;18.10;99.90
31661;DHT22;18267;52.234;7.444;2023-07-28T00:29:01;18.10;99.90
31661;DHT22;18267;52.234;7.444;2023-07-28T00:31:26;18.10;99.90
31661;DHT22;18267;52.234;7.444;2023-07-28T00:33:52;18.20;99.90
31661;DHT22;18267;52.234;7.444;2023-07-28T00:36:17;18.20;99.90
31661;DHT22;18267;52.234;7.444;2023-07-28T00:38:43;18.10;99.90
31661;DHT22;18267;52.234;7.444;2023-07-28T00:41:08;18.20;99.90
31661;DHT22;18267;52.234;7.444;2023-07-28T00:43:34;18.20;99.90
31661;DHT22;18267;52.234;7.444;2023-07-28T00:45:59;18.20;99.90
31661;DHT22;18267;52.234;7.444;2023-07-28T00:48:25;18.20;99.90
31661;DHT22;18267;52.234;7.444;2023-07-28T00:50:52;18.20;99.90
31661;DHT22;18267;52.234;7.444;2023-07-28T00:53:19;18.20;99.90
31661;DHT22;18267;52.234;7.444;2023-07-28T00:55:47;18.20;99.90
31661;DHT22;18267;52.234;7.444;2023-07-28T00:58:12;18.10;99.90
31661;DHT22;18267;52.234;7.444;2023-07-28T01:00:38;18.10;99.90
31661;DHT22;18267;52.234;7.444;2023-07-28T01:03:04;18.10;99.90
31661;DHT22;18267;52.234;7.444;2023-07-28T01:05:55;18.10;99.90
31661;DHT22;18267;52.234;7.444;2023-07-28T01:09:02;18.20;99.90
31661;DHT22;18267;52.234;7.444;2023-07-28T01:11:31;18.10;99.90
31661;DHT22;18267;52.234;7.444;2023-07-28T01:13:56;18.10;99.90
31661;DHT22;18267;52.234;7.444;2023-07-28T01:16:22;18.10;99.90
31661;DHT22;18267;52.234;7.444;2023-07-28T01:18:48;18.00;99.90
31661;DHT22;18267;52.234;7.444;2023-07-28T01:21:26;18.10;99.90
31661;DHT22;18267;52.234;7.444;2023-07-28T01:24:09;18.10;99.90
31661;DHT22;18267;52.234;7.444;2023-07-28T01:26:40;18.10;99.90
31661;DHT22;18267;52.234;7.444;2023-07-28T01:29:07;18.10;99.90
31661;DHT22;18267;52.234;7.444;2023-07-28T01:31:32;18.10;99.90
31661;DHT22;18267;52.234;7.444;2023-07-28T01:33:58;18.10;99.90
31661;DHT22;18267;52.234;7.444;2023-07-28T01:36:24;18.10;99.90
31661;DHT22;18267;52.234;7.444;2023-07-28T01:38:49;18.10;99.90
31661;DHT22;18267;52.234;7.444;2023-07-28T01:41:15;18.10;99.90
31661;DHT22;18267;52.234;7.444;2023-07-28T01:43:40;18.10;99.90
31661;DHT22;18267;52.234;7.444;2023-07-28T01:46:07;18.00;99.90
31661;DHT22;18267;52.234;7.444;2023-07-28T01:48:33;18.10;99.90
31661;DHT22;18267;52.234;7.444;2023-07-28T01:50:59;18.00;99.90
31661;DHT22;18267;52.234;7.444;2023-07-28T01:53:24;18.00;99.90
31661;DHT22;18267;52.234;7.444;2023-07-28T01:55:50;18.00;99.90
31661;DHT22;18267;52.234;7.444;2023-07-28T01:58:15;18.00;99.90
31661;DHT22;18267;52.234;7.444;2023-07-28T02:00:41;18.10;99.90
31661;DHT22;18267;52.234;7.444;2023-07-28T02:03:06;18.10;99.90
31661;DHT22;18267;52.234;7.444;2023-07-28T02:05:32;18.10;99.90
31661;DHT22;18267;52.234;7.444;2023-07-28T02:07:58;18.00;99.90
31661;DHT22;18267;52.234;7.444;2023-07-28T02:10:24;18.00;99.90
31661;DHT22;18267;52.234;7.444;2023-07-28T02:12:49;18.00;99.90
31661;DHT22;18267;52.234;7.444;2023-07-28T02:15:16;18.00;99.90
31661;DHT22;18267;52.234;7.444;2023-07-28T02:17:42;18.10;99.90
31661;DHT22;18267;52.234;7.444;2023-07-28T02:20:07;18.10;99.90
31661;DHT22;18267;52.234;7.444;2023-07-28T02:22:36;18.00;99.90
31661;DHT22;18267;52.234;7.444;2023-07-28T02:25:02;18.10;99.90
31661;DHT22;18267;52.234;7.444;2023-07-28T02:27:28;18.10;99.90
31661;DHT22;18267;52.234;7.444;2023-07-28T02:29:54;18.10;99.90
31661;DHT22;18267;52.234;7.444;2023-07-28T02:32:19;18.10;99.90
31661;DHT22;18267;52.234;7.444;2023-07-28T02:34:45;18.10;99.90
31661;DHT22;18267;52.234;7.444;2023-07-28T02:37:11;18.20;99.90
31661;DHT22;18267;52.234;7.444;2023-07-28T02:39:36;18.10;99.90
31661;DHT22;18267;52.234;7.444;2023-07-28T02:42:02;18.10;99.90
31661;DHT22;18267;52.234;7.444;2023-07-28T02:44:27;18.10;99.90
31661;DHT22;18267;52.234;7.444;2023-07-28T02:46:53;18.10;99.90
31661;DHT22;18267;52.234;7.444;2023-07-28T02:49:18;18.00;99.90
31661;DHT22;18267;52.234;7.444;2023-07-28T02:51:44;18.10;99.90
31661;DHT22;18267;52.234;7.444;2023-07-28T02:54:10;18.10;99.90
31661;DHT22;18267;52.234;7.444;2023-07-28T02:56:35;18.10;99.90
31661;DHT22;18267;52.234;7.444;2023-07-28T02:59:03;18.10;99.90
31661;DHT22;18267;52.234;7.444;2023-07-28T03:01:32;18.20;99.90
31661;DHT22;18267;52.234;7.444;2023-07-28T03:04:00;18.10;99.90
31661;DHT22;18267;52.234;7.444;2023-07-28T03:06:25;18.10;99.90
31661;DHT22;18267;52.234;7.444;2023-07-28T03:08:51;18.00;99.90
31661;DHT22;18267;52.234;7.444;2023-07-28T03:11:16;18.10;99.90
31661;DHT22;18267;52.234;7.444;2023-07-28T03:13:42;18.00;99.90
31661;DHT22;18267;52.234;7.444;2023-07-28T03:16:07;18.10;99.90
31661;DHT22;18267;52.234;7.444;2023-07-28T03:18:33;18.10;99.90
31661;DHT22;18267;52.234;7.444;2023-07-28T03:20:59;18.10;99.90
31661;DHT22;18267;52.234;7.444;2023-07-28T03:23:24;18.10;99.90
31661;DHT22;18267;52.234;7.444;2023-07-28T03:25:50;18.10;99.90
31661;DHT22;18267;52.234;7.444;2023-07-28T03:28:15;18.10;99.90
31661;DHT22;18267;52.234;7.444;2023-07-28T03:30:41;18.00;99.90
31661;DHT22;18267;52.234;7.444;2023-07-28T03:33:07;18.10;99.90
31661;DHT22;18267;52.234;7.444;2023-07-28T03:35:32;18.10;99.90
31661;DHT22;18267;52.234;7.444;2023-07-28T03:37:58;18.00;99.90
31661;DHT22;18267;52.234;7.444;2023-07-28T03:40:23;18.10;99.90
31661;DHT22;18267;52.234;7.444;2023-07-28T03:42:49;18.10;99.90
31661;DHT22;18267;52.234;7.444;2023-07-28T03:45:15;18.10;99.90
31661;DHT22;18267;52.234;7.444;2023-07-28T03:47:40;18.10;99.90
31661;DHT22;18267;52.234;7.444;2023-07-28T03:50:06;18.00;99.90
31661;DHT22;18267;52.234;7.444;2023-07-28T03:52:32;18.00;99.90
31661;DHT22;18267;52.234;7.444;2023-07-28T03:54:57;18.00;99.90
31661;DHT22;18267;52.234;7.444;2023-07-28T03:57:23;18.10;99.90
31661;DHT22;18267;52.234;7.444;2023-07-28T03:59:48;18.10;99.90
31661;DHT22;18267;52.234;7.444;2023-07-28T04:02:14;18.10;99.90
31661;DHT22;18267;52.234;7.444;2023-07-28T04:04:39;18.00;99.90
31661;DHT22;18267;52.234;7.444;2023-07-28T04:07:05;18.10;99.90
31661;DHT22;18267;52.234;7.444;2023-07-28T04:09:31;18.10;99.90
31661;DHT22;18267;52.234;7.444;2023-07-28T04:11:56;18.10;99.90
31661;DHT22;18267;52.234;7.444;2023-07-28T04:14:22;18.20;99.90
31661;DHT22;18267;52.234;7.444;2023-07-28T04:16:48;18.20;99.90
31661;DHT22;18267;52.234;7.444;2023-07-28T04:19:13;18.20;99.90
31661;DHT22;18267;52.234;7.444;2023-07-28T04:21:39;18.20;99.90
31661;DHT22;18267;52.234;7.444;2023-07-28T04:24:06;18.10;99.90
31661;DHT22;18267;52.234;7.444;2023-07-28T04:26:32;18.10;99.90
31661;DHT22;18267;52.234;7.444;2023-07-28T04:28:58;18.10;99.90
31661;DHT22;18267;52.234;7.444;2023-07-28T04:31:23;18.10;99.90
31661;DHT22;18267;52.234;7.444;2023-07-28T04:33:49;18.20;99.90
31661;DHT22;18267;52.234;7.444;2023-07-28T04:36:14;18.20;99.90
31661;DHT22;18267;52.234;7.444;2023-07-28T04:38:40;18.20;99.90
31661;DHT22;18267;52.234;7.444;2023-07-28T04:41:05;18.30;99.90
31661;DHT22;18267;52.234;7.444;2023-07-28T04:43:31;18.20;99.90
31661;DHT22;18267;52.234;7.444;2023-07-28T04:45:56;18.30;99.90
31661;DHT22;18267;52.234;7.444;2023-07-28T04:48:22;18.30;99.90
31661;DHT22;18267;52.234;7.444;2023-07-28T04:50:48;18.40;99.90
31661;DHT22;18267;52.234;7.444;2023-07-28T04:53:13;18.40;99.90
31661;DHT22;18267;52.234;7.444;2023-07-28T04:55:39;18.30;99.90
31661;DHT22;18267;52.234;7.444;2023-07-28T04:58:04;18.30;99.90
31661;DHT22;18267;52.234;7.444;2023-07-28T05:00:30;18.30;99.90
31661;DHT22;18267;52.234;7.444;2023-07-28T05:02:55;18.30;99.90
31661;DHT22;18267;52.234;7.444;2023-07-28T05:05:21;18.30;99.90
31661;DHT22;18267;52.234;7.444;2023-07-28T05:07:46;18.30;99.90
31661;DHT22;18267;52.234;7.444;2023-07-28T05:10:12;18.50;99.90
31661;DHT22;18267;52.234;7.444;2023-07-28T05:12:38;18.60;99.90
31661;DHT22;18267;52.234;7.444;2023-07-28T05:15:05;18.70;99.90
31661;DHT22;18267;52.234;7.444;2023-07-28T05:17:31;18.70;99.90
31661;DHT22;18267;52.234;7.444;2023-07-28T05:19:56;18.70;99.90
31661;DHT22;18267;52.234;7.444;2023-07-28T05:22:22;18.80;99.90
31661;DHT22;18267;52.234;7.444;2023-07-28T05:24:47;18.90;99.90
31661;DHT22;18267;52.234;7.444;2023-07-28T05:27:13;18.90;99.90
31661;DHT22;18267;52.234;7.444;2023-07-28T05:29:38;18.90;99.90
31661;DHT22;18267;52.234;7.444;2023-07-28T05:32:06;19.00;99.90
31661;DHT22;18267;52.234;7.444;2023-07-28T05:34:31;19.00;99.90
31661;DHT22;18267;52.234;7.444;2023-07-28T05:36:57;19.00;99.90
31661;DHT22;18267;52.234;7.444;2023-07-28T05:39:23;19.10;99.90
31661;DHT22;18267;52.234;7.444;2023-07-28T05:41:48;19.10;99.90
31661;DHT22;18267;52.234;7.444;2023-07-28T05:44:14;19.20;99.90
31661;DHT22;18267;52.234;7.444;2023-07-28T05:46:40;19.20;99.90
31661;DHT22;18267;52.234;7.444;2023-07-28T05:49:05;19.20;99.90
31661;DHT22;18267;52.234;7.444;2023-07-28T05:51:31;19.20;99.90
31661;DHT22;18267;52.234;7.444;2023-07-28T05:53:57;19.40;99.90
31661;DHT22;18267;52.234;7.444;2023-07-28T05:56:22;19.50;99.90
31661;DHT22;18267;52.234;7.444;2023-07-28T05:58:48;19.50;99.90
31661;DHT22;18267;52.234;7.444;2023-07-28T06:01:14;19.60;99.90
31661;DHT22;18267;52.234;7.444;2023-07-28T06:03:39;19.60;99.90
31661;DHT22;18267;52.234;7.444;2023-07-28T06:06:05;19.70;99.90
31661;DHT22;18267;52.234;7.444;2023-07-28T06:08:31;19.80;99.90
31661;DHT22;18267;52.234;7.444;2023-07-28T06:10:56;19.80;99.90
31661;DHT22;18267;52.234;7.444;2023-07-28T06:13:22;19.80;99.90
31661;DHT22;18267;52.234;7.444;2023-07-28T06:15:48;19.80;99.90
31661;DHT22;18267;52.234;7.444;2023-07-28T06:18:13;19.80;99.90
31661;DHT22;18267;52.234;7.444;2023-07-28T06:20:43;19.80;99.90
31661;DHT22;18267;52.234;7.444;2023-07-28T06:23:09;19.90;99.90
31661;DHT22;18267;52.234;7.444;2023-07-28T06:25:34;19.90;99.90
31661;DHT22;18267;52.234;7.444;2023-07-28T06:28:01;20.00;99.90
31661;DHT22;18267;52.234;7.444;2023-07-28T06:30:26;20.20;99.90
31661;DHT22;18267;52.234;7.444;2023-07-28T06:32:52;20.30;99.90
31661;DHT22;18267;52.234;7.444;2023-07-28T06:35:17;20.40;99.90
31661;DHT22;18267;52.234;7.444;2023-07-28T06:37:43;20.50;99.90
31661;DHT22;18267;52.234;7.444;2023-07-28T06:40:09;20.50;99.90
31661;DHT22;18267;52.234;7.444;2023-07-28T06:42:36;20.60;99.90
31661;DHT22;18267;52.234;7.444;2023-07-28T06:45:02;20.50;99.90
31661;DHT22;18267;52.234;7.444;2023-07-28T06:47:28;20.40;99.90
31661;DHT22;18267;52.234;7.444;2023-07-28T06:49:54;20.50;99.90
31661;DHT22;18267;52.234;7.444;2023-07-28T06:52:19;20.40;99.90
31661;DHT22;18267;52.234;7.444;2023-07-28T06:54:45;20.50;99.90
31661;DHT22;18267;52.234;7.444;2023-07-28T06:57:12;20.70;99.90
31661;DHT22;18267;52.234;7.444;2023-07-28T06:59:38;20.80;99.90
31661;DHT22;18267;52.234;7.444;2023-07-28T07:02:03;20.90;99.90
31661;DHT22;18267;52.234;7.444;2023-07-28T07:04:29;20.80;99.90
31661;DHT22;18267;52.234;7.444;2023-07-28T07:06:55;20.80;99.90
31661;DHT22;18267;52.234;7.444;2023-07-28T07:09:20;20.70;99.90
31661;DHT22;18267;52.234;7.444;2023-07-28T07:11:46;20.60;99.90
31661;DHT22;18267;52.234;7.444;2023-07-28T07:14:12;20.60;99.90
31661;DHT22;18267;52.234;7.444;2023-07-28T07:16:37;20.50;99.90
31661;DHT22;18267;52.234;7.444;2023-07-28T07:19:03;20.50;99.90
31661;DHT22;18267;52.234;7.444;2023-07-28T07:21:29;20.50;99.90
31661;DHT22;18267;52.234;7.444;2023-07-28T07:23:54;20.50;99.90
31661;DHT22;18267;52.234;7.444;2023-07-28T07:26:20;20.60;99.90
31661;DHT22;18267;52.234;7.444;2023-07-28T07:28:46;20.60;99.90
31661;DHT22;18267;52.234;7.444;2023-07-28T07:31:12;20.60;99.90
31661;DHT22;18267;52.234;7.444;2023-07-28T07:33:39;20.60;99.90
31661;DHT22;18267;52.234;7.444;2023-07-28T07:36:04;20.60;99.90
31661;DHT22;18267;52.234;7.444;2023-07-28T07:38:30;20.70;99.90
31661;DHT22;18267;52.234;7.444;2023-07-28T07:40:55;20.80;99.90
31661;DHT22;18267;52.234;7.444;2023-07-28T07:43:21;20.80;99.90
31661;DHT22;18267;52.234;7.444;2023-07-28T07:45:46;21.00;99.90
31661;DHT22;18267;52.234;7.444;2023-07-28T07:48:12;21.00;99.90
31661;DHT22;18267;52.234;7.444;2023-07-28T07:50:38;21.10;99.90
31661;DHT22;18267;52.234;7.444;2023-07-28T07:53:04;21.10;99.90
31661;DHT22;18267;52.234;7.444;2023-07-28T07:55:30;21.10;99.90
31661;DHT22;18267;52.234;7.444;2023-07-28T07:57:57;21.10;99.90
31661;DHT22;18267;52.234;7.444;2023-07-28T08:00:22;21.20;99.90
31661;DHT22;18267;52.234;7.444;2023-07-28T08:02:49;21.30;99.90
31661;DHT22;18267;52.234;7.444;2023-07-28T08:05:15;21.20;99.90
31661;DHT22;18267;52.234;7.444;2023-07-28T08:07:41;21.40;99.90
31661;DHT22;18267;52.234;7.444;2023-07-28T08:10:06;21.60;99.90
31661;DHT22;18267;52.234;7.444;2023-07-28T08:12:32;21.80;99.90
31661;DHT22;18267;52.234;7.444;2023-07-28T08:14:58;21.80;99.90
31661;DHT22;18267;52.234;7.444;2023-07-28T08:17:24;21.80;99.90
31661;DHT22;18267;52.234;7.444;2023-07-28T08:19:49;21.70;99.90
31661;DHT22;18267;52.234;7.444;2023-07-28T08:22:15;21.50;99.90
31661;DHT22;18267;52.234;7.444;2023-07-28T08:24:41;21.40;99.90
31661;DHT22;18267;52.234;7.444;2023-07-28T08:27:06;21.40;99.90
31661;DHT22;18267;52.234;7.444;2023-07-28T08:29:32;21.50;99.90
31661;DHT22;18267;52.234;7.444;2023-07-28T08:31:57;21.60;99.90
31661;DHT22;18267;52.234;7.444;2023-07-28T08:34:23;21.70;99.90
31661;DHT22;18267;52.234;7.444;2023-07-28T08:36:48;21.70;99.90
31661;DHT22;18267;52.234;7.444;2023-07-28T08:39:14;21.80;99.90
31661;DHT22;18267;52.234;7.444;2023-07-28T08:41:40;22.00;99.90
31661;DHT22;18267;52.234;7.444;2023-07-28T08:44:07;22.10;99.90
31661;DHT22;18267;52.234;7.444;2023-07-28T08:46:32;22.10;99.90
31661;DHT22;18267;52.234;7.444;2023-07-28T08:48:59;21.90;99.90
31661;DHT22;18267;52.234;7.444;2023-07-28T08:51:25;21.70;99.90
31661;DHT22;18267;52.234;7.444;2023-07-28T08:53:51;21.70;99.90
31661;DHT22;18267;52.234;7.444;2023-07-28T08:56:16;21.80;99.90
31661;DHT22;18267;52.234;7.444;2023-07-28T08:58:42;21.70;99.90
31661;DHT22;18267;52.234;7.444;2023-07-28T09:01:07;21.70;99.90
31661;DHT22;18267;52.234;7.444;2023-07-28T09:03:33;21.70;99.90
31661;DHT22;18267;52.234;7.444;2023-07-28T09:06:06;21.70;99.90
31661;DHT22;18267;52.234;7.444;2023-07-28T09:08:35;21.70;99.90
31661;DHT22;18267;52.234;7.444;2023-07-28T09:11:04;21.70;99.90
31661;DHT22;18267;52.234;7.444;2023-07-28T09:13:39;21.60;99.90
31661;DHT22;18267;52.234;7.444;2023-07-28T09:16:17;21.50;99.90
31661;DHT22;18267;52.234;7.444;2023-07-28T09:18:43;21.50;99.90
31661;DHT22;18267;52.234;7.444;2023-07-28T09:21:16;21.50;99.90
31661;DHT22;18267;52.234;7.444;2023-07-28T09:23:43;21.50;99.90
31661;DHT22;18267;52.234;7.444;2023-07-28T09:26:09;21.50;99.90
31661;DHT22;18267;52.234;7.444;2023-07-28T09:28:39;21.50;99.90
31661;DHT22;18267;52.234;7.444;2023-07-28T09:31:05;21.30;99.90
31661;DHT22;18267;52.234;7.444;2023-07-28T09:33:33;21.20;99.90
31661;DHT22;18267;52.234;7.444;2023-07-28T09:36:10;21.20;99.90
31661;DHT22;18267;52.234;7.444;2023-07-28T09:38:37;21.30;99.90
31661;DHT22;18267;52.234;7.444;2023-07-28T09:41:04;21.40;99.90
31661;DHT22;18267;52.234;7.444;2023-07-28T09:43:35;21.40;99.90
31661;DHT22;18267;52.234;7.444;2023-07-28T09:46:03;21.50;99.90
31661;DHT22;18267;52.234;7.444;2023-07-28T09:48:31;21.50;99.90
31661;DHT22;18267;52.234;7.444;2023-07-28T09:51:00;21.70;99.90
31661;DHT22;18267;52.234;7.444;2023-07-28T09:53:28;21.70;99.90
31661;DHT22;18267;52.234;7.444;2023-07-28T09:55:55;21.50;99.90
31661;DHT22;18267;52.234;7.444;2023-07-28T09:58:24;21.50;99.90
31661;DHT22;18267;52.234;7.444;2023-07-28T10:00:51;21.40;99.90
31661;DHT22;18267;52.234;7.444;2023-07-28T10:03:17;21.40;99.90
31661;DHT22;18267;52.234;7.444;2023-07-28T10:05:44;21.30;99.90
31661;DHT22;18267;52.234;7.444;2023-07-28T10:08:10;21.40;99.90
31661;DHT22;18267;52.234;7.444;2023-07-28T10:10:36;21.60;99.90
31661;DHT22;18267;52.234;7.444;2023-07-28T10:13:02;21.70;99.90
31661;DHT22;18267;52.234;7.444;2023-07-28T10:15:30;21.80;99.90
31661;DHT22;18267;52.234;7.444;2023-07-28T10:17:57;21.70;99.90
31661;DHT22;18267;52.234;7.444;2023-07-28T10:20:35;21.70;99.90
31661;DHT22;18267;52.234;7.444;2023-07-28T10:23:16;21.50;99.90
31661;DHT22;18267;52.234;7.444;2023-07-28T10:25:43;21.40;99.90
31661;DHT22;18267;52.234;7.444;2023-07-28T10:28:27;21.20;99.90
31661;DHT22;18267;52.234;7.444;2023-07-28T10:30:55;21.20;99.90
31661;DHT22;18267;52.234;7.444;2023-07-28T10:36:11;21.20;99.90
31661;DHT22;18267;52.234;7.444;2023-07-28T10:38:37;21.20;99.90
31661;DHT22;18267;52.234;7.444;2023-07-28T10:41:11;21.30;99.90
31661;DHT22;18267;52.234;7.444;2023-07-28T10:43:38;21.20;99.90
31661;DHT22;18267;52.234;7.444;2023-07-28T10:46:05;21.00;99.90
31661;DHT22;18267;52.234;7.444;2023-07-28T10:48:35;21.00;99.90
31661;DHT22;18267;52.234;7.444;2023-07-28T10:51:01;20.90;99.90
31661;DHT22;18267;52.234;7.444;2023-07-28T10:53:26;20.90;99.90
31661;DHT22;18267;52.234;7.444;2023-07-28T10:55:52;20.80;99.90
31661;DHT22;18267;52.234;7.444;2023-07-28T10:58:19;20.90;99.90
31661;DHT22;18267;52.234;7.444;2023-07-28T11:00:45;21.10;99.90
31661;DHT22;18267;52.234;7.444;2023-07-28T11:03:12;21.10;99.90
31661;DHT22;18267;52.234;7.444;2023-07-28T11:05:38;21.20;99.90
31661;DHT22;18267;52.234;7.444;2023-07-28T11:08:06;21.20;99.90
31661;DHT22;18267;52.234;7.444;2023-07-28T11:10:33;21.30;99.90
31661;DHT22;18267;52.234;7.444;2023-07-28T11:13:02;21.30;99.90
31661;DHT22;18267;52.234;7.444;2023-07-28T11:15:29;21.40;99.90
31661;DHT22;18267;52.234;7.444;2023-07-28T11:17:55;21.60;99.90
31661;DHT22;18267;52.234;7.444;2023-07-28T11:25:18;22.30;99.90
31661;DHT22;18267;52.234;7.444;2023-07-28T11:27:47;22.50;99.90
31661;DHT22;18267;52.234;7.444;2023-07-28T11:30:14;22.60;99.90
31661;DHT22;18267;52.234;7.444;2023-07-28T11:32:42;22.70;99.90
31661;DHT22;18267;52.234;7.444;2023-07-28T11:35:10;22.70;99.90
31661;DHT22;18267;52.234;7.444;2023-07-28T11:37:37;22.80;99.90
31661;DHT22;18267;52.234;7.444;2023-07-28T11:40:04;22.80;99.90
31661;DHT22;18267;52.234;7.444;2023-07-28T11:42:37;22.80;99.90
31661;DHT22;18267;52.234;7.444;2023-07-28T11:45:04;22.70;99.90
31661;DHT22;18267;52.234;7.444;2023-07-28T11:47:30;22.60;99.90
31661;DHT22;18267;52.234;7.444;2023-07-28T11:49:56;22.50;99.90
31661;DHT22;18267;52.234;7.444;2023-07-28T11:52:24;22.60;99.90
31661;DHT22;18267;52.234;7.444;2023-07-28T11:54:51;22.60;99.90
31661;DHT22;18267;52.234;7.444;2023-07-28T11:57:17;22.60;99.90
31661;DHT22;18267;52.234;7.444;2023-07-28T11:59:43;22.50;99.90
31661;DHT22;18267;52.234;7.444;2023-07-28T12:02:09;22.50;99.90
31661;DHT22;18267;52.234;7.444;2023-07-28T12:04:37;22.60;99.90
31661;DHT22;18267;52.234;7.444;2023-07-28T12:07:15;22.70;99.90
31661;DHT22;18267;52.234;7.444;2023-07-28T12:12:22;22.90;99.90
31661;DHT22;18267;52.234;7.444;2023-07-28T12:14:49;23.00;99.90
31661;DHT22;18267;52.234;7.444;2023-07-28T12:17:18;23.10;99.90
31661;DHT22;18267;52.234;7.444;2023-07-28T12:20:04;23.00;99.90
31661;DHT22;18267;52.234;7.444;2023-07-28T12:22:41;22.90;99.90
31661;DHT22;18267;52.234;7.444;2023-07-28T12:25:07;22.80;99.90
31661;DHT22;18267;52.234;7.444;2023-07-28T12:27:33;22.80;99.90
31661;DHT22;18267;52.234;7.444;2023-07-28T12:29:59;22.80;99.90
31661;DHT22;18267;52.234;7.444;2023-07-28T12:32:25;22.70;99.90
31661;DHT22;18267;52.234;7.444;2023-07-28T12:34:51;22.70;99.90
31661;DHT22;18267;52.234;7.444;2023-07-28T12:37:17;22.80;99.90
31661;DHT22;18267;52.234;7.444;2023-07-28T12:39:43;22.80;99.90
31661;DHT22;18267;52.234;7.444;2023-07-28T12:42:09;22.90;99.90
31661;DHT22;18267;52.234;7.444;2023-07-28T12:44:36;23.00;99.90
31661;DHT22;18267;52.234;7.444;2023-07-28T12:47:02;23.00;99.90
31661;DHT22;18267;52.234;7.444;2023-07-28T12:49:29;23.00;99.90
31661;DHT22;18267;52.234;7.444;2023-07-28T12:51:58;23.10;99.90
31661;DHT22;18267;52.234;7.444;2023-07-28T12:54:24;23.20;99.90
31661;DHT22;18267;52.234;7.444;2023-07-28T12:56:50;23.20;99.90
31661;DHT22;18267;52.234;7.444;2023-07-28T12:59:16;23.20;99.90
31661;DHT22;18267;52.234;7.444;2023-07-28T13:01:42;23.20;99.90
31661;DHT22;18267;52.234;7.444;2023-07-28T13:04:07;23.30;99.90
31661;DHT22;18267;52.234;7.444;2023-07-28T13:06:33;23.30;99.90
31661;DHT22;18267;52.234;7.444;2023-07-28T13:08:59;23.30;99.90
31661;DHT22;18267;52.234;7.444;2023-07-28T13:11:25;23.20;99.90
31661;DHT22;18267;52.234;7.444;2023-07-28T13:13:50;23.20;99.90
31661;DHT22;18267;52.234;7.444;2023-07-28T13:16:16;23.30;99.90
31661;DHT22;18267;52.234;7.444;2023-07-28T13:18:42;23.30;99.90
31661;DHT22;18267;52.234;7.444;2023-07-28T13:21:09;23.30;99.90
31661;DHT22;18267;52.234;7.444;2023-07-28T13:23:36;23.40;99.90
31661;DHT22;18267;52.234;7.444;2023-07-28T13:26:02;23.40;99.90
31661;DHT22;18267;52.234;7.444;2023-07-28T13:28:29;23.50;99.90
31661;DHT22;18267;52.234;7.444;2023-07-28T13:30:55;23.60;99.90
31661;DHT22;18267;52.234;7.444;2023-07-28T13:33:20;23.60;99.90
31661;DHT22;18267;52.234;7.444;2023-07-28T13:35:46;23.70;99.90
31661;DHT22;18267;52.234;7.444;2023-07-28T13:38:12;23.70;99.90
31661;DHT22;18267;52.234;7.444;2023-07-28T13:40:38;23.80;99.90
31661;DHT22;18267;52.234;7.444;2023-07-28T13:43:03;23.90;99.90
31661;DHT22;18267;52.234;7.444;2023-07-28T13:45:29;24.00;99.90
31661;DHT22;18267;52.234;7.444;2023-07-28T13:47:55;24.10;99.90
31661;DHT22;18267;52.234;7.444;2023-07-28T13:50:20;24.20;99.90
31661;DHT22;18267;52.234;7.444;2023-07-28T13:52:46;24.10;99.90
31661;DHT22;18267;52.234;7.444;2023-07-28T13:55:12;24.00;99.90
31661;DHT22;18267;52.234;7.444;2023-07-28T13:57:38;24.00;99.90
31661;DHT22;18267;52.234;7.444;2023-07-28T14:00:04;24.00;99.90
31661;DHT22;18267;52.234;7.444;2023-07-28T14:02:34;24.20;99.90
31661;DHT22;18267;52.234;7.444;2023-07-28T14:05:00;24.30;99.90
31661;DHT22;18267;52.234;7.444;2023-07-28T14:07:26;24.40;99.90
31661;DHT22;18267;52.234;7.444;2023-07-28T14:09:51;24.50;99.90
31661;DHT22;18267;52.234;7.444;2023-07-28T14:12:17;24.50;99.90
31661;DHT22;18267;52.234;7.444;2023-07-28T14:14:43;24.30;99.90
31661;DHT22;18267;52.234;7.444;2023-07-28T14:17:09;24.10;99.90
31661;DHT22;18267;52.234;7.444;2023-07-28T14:19:36;24.00;99.90
31661;DHT22;18267;52.234;7.444;2023-07-28T14:22:01;24.00;99.90
31661;DHT22;18267;52.234;7.444;2023-07-28T14:24:27;24.00;99.90
31661;DHT22;18267;52.234;7.444;2023-07-28T14:26:53;24.10;99.90
31661;DHT22;18267;52.234;7.444;2023-07-28T14:29:18;24.10;99.90
31661;DHT22;18267;52.234;7.444;2023-07-28T14:31:44;24.10;99.90
31661;DHT22;18267;52.234;7.444;2023-07-28T14:34:09;24.10;99.90
31661;DHT22;18267;52.234;7.444;2023-07-28T14:36:35;24.10;99.90
31661;DHT22;18267;52.234;7.444;2023-07-28T14:39:01;24.10;99.90
31661;DHT22;18267;52.234;7.444;2023-07-28T14:41:27;24.10;99.90
31661;DHT22;18267;52.234;7.444;2023-07-28T14:43:52;24.20;99.90
31661;DHT22;18267;52.234;7.444;2023-07-28T14:46:18;24.20;99.90
31661;DHT22;18267;52.234;7.444;2023-07-28T14:48:44;24.10;99.90
31661;DHT22;18267;52.234;7.444;2023-07-28T14:51:09;24.10;99.90
31661;DHT22;18267;52.234;7.444;2023-07-28T14:53:37;24.10;99.90
31661;DHT22;18267;52.234;7.444;2023-07-28T14:56:04;24.10;99.90
31661;DHT22;18267;52.234;7.444;2023-07-28T14:58:30;24.20;99.90
31661;DHT22;18267;52.234;7.444;2023-07-28T15:00:57;24.10;99.90
31661;DHT22;18267;52.234;7.444;2023-07-28T15:03:28;24.20;99.90
31661;DHT22;18267;52.234;7.444;2023-07-28T15:05:54;24.20;99.90
31661;DHT22;18267;52.234;7.444;2023-07-28T15:08:23;24.20;99.90
31661;DHT22;18267;52.234;7.444;2023-07-28T15:10:48;24.10;99.90
31661;DHT22;18267;52.234;7.444;2023-07-28T15:13:14;24.10;99.90
31661;DHT22;18267;52.234;7.444;2023-07-28T15:15:39;24.00;99.90
31661;DHT22;18267;52.234;7.444;2023-07-28T15:18:05;23.80;99.90
31661;DHT22;18267;52.234;7.444;2023-07-28T15:20:32;23.80;99.90
31661;DHT22;18267;52.234;7.444;2023-07-28T15:22:58;23.80;99.90
31661;DHT22;18267;52.234;7.444;2023-07-28T15:25:25;23.80;99.90
31661;DHT22;18267;52.234;7.444;2023-07-28T15:27:50;23.70;99.90
31661;DHT22;18267;52.234;7.444;2023-07-28T15:30:16;23.60;99.90
31661;DHT22;18267;52.234;7.444;2023-07-28T15:32:41;23.60;99.90
31661;DHT22;18267;52.234;7.444;2023-07-28T15:35:07;23.60;99.90
31661;DHT22;18267;52.234;7.444;2023-07-28T15:37:33;23.60;99.90